createdAt,value
2019-01-10T00:00:05.664Z,2.70
2019-01-10T00:02:35.854Z,2.70
2019-01-10T00:05:09.424Z,2.70
2019-01-10T00:07:39.604Z,2.60
2019-01-10T00:10:15.245Z,2.60
2019-01-10T00:12:45.424Z,2.60
2019-01-10T00:15:18.566Z,2.70
2019-01-10T00:18:31.437Z,2.60
2019-01-10T00:21:01.602Z,2.60
2019-01-10T00:23:53.073Z,2.60
2019-01-10T00:26:23.327Z,2.70
2019-01-10T00:28:53.565Z,2.60
2019-01-10T00:31:23.985Z,2.70
2019-01-10T00:33:54.404Z,2.60
2019-01-10T00:36:26.116Z,2.50
2019-01-10T00:38:56.299Z,2.60
2019-01-10T00:41:26.507Z,2.60
2019-01-10T00:43:56.641Z,2.60
2019-01-10T00:47:11.458Z,2.70
2019-01-10T00:49:41.719Z,2.70
2019-01-10T00:52:11.915Z,2.70
2019-01-10T00:54:42.063Z,2.70
2019-01-10T00:57:12.209Z,2.60
2019-01-10T00:59:42.395Z,2.50
2019-01-10T01:02:12.561Z,2.60
2019-01-10T01:04:42.705Z,2.50
2019-01-10T01:07:12.974Z,2.60
2019-01-10T01:09:43.212Z,2.70
2019-01-10T01:12:13.359Z,2.70
2019-01-10T01:14:43.572Z,2.60
2019-01-10T01:17:15.833Z,2.70
2019-01-10T01:19:45.662Z,2.70
2019-01-10T01:22:15.839Z,2.60
2019-01-10T01:24:46.009Z,2.70
2019-01-10T01:27:17.659Z,2.60
2019-01-10T01:29:47.891Z,2.60
2019-01-10T01:32:25.927Z,2.60
2019-01-10T01:34:56.107Z,2.60
2019-01-10T01:37:26.254Z,2.60
2019-01-10T01:40:02.398Z,2.60
2019-01-10T01:42:32.567Z,2.60
2019-01-10T01:45:02.809Z,2.60
2019-01-10T01:47:33.011Z,2.60
2019-01-10T01:50:04.806Z,2.60
2019-01-10T01:52:34.999Z,2.60
2019-01-10T01:55:05.860Z,2.60
2019-01-10T01:57:36.042Z,2.60
2019-01-10T02:00:21.795Z,2.60
2019-01-10T02:02:51.998Z,2.50
2019-01-10T02:05:22.225Z,2.50
2019-01-10T02:07:52.433Z,2.60
2019-01-10T02:10:27.157Z,2.60
2019-01-10T02:13:16.482Z,2.60
2019-01-10T02:15:41.197Z,2.70
2019-01-10T02:18:11.372Z,2.60
2019-01-10T02:20:41.541Z,2.60
2019-01-10T02:23:21.053Z,2.50
2019-01-10T02:25:51.203Z,2.50
2019-01-10T02:28:21.348Z,2.50
2019-01-10T02:30:51.553Z,2.60
2019-01-10T02:33:21.744Z,2.70
2019-01-10T02:35:51.872Z,2.70
2019-01-10T02:38:22.076Z,2.80
2019-01-10T02:40:52.256Z,2.70
2019-01-10T02:43:26.636Z,2.70
2019-01-10T02:45:54.317Z,2.60
2019-01-10T02:48:25.123Z,2.60
2019-01-10T02:50:55.310Z,2.60
2019-01-10T02:53:25.455Z,2.60
2019-01-10T02:55:55.678Z,2.50
2019-01-10T02:58:25.888Z,2.60
2019-01-10T03:00:56.168Z,2.60
2019-01-10T03:03:26.422Z,2.50
2019-01-10T03:05:56.602Z,2.50
2019-01-10T03:08:26.850Z,2.50
2019-01-10T03:10:57.075Z,2.50
2019-01-10T03:13:36.249Z,2.60
2019-01-10T03:15:59.152Z,2.60
2019-01-10T03:18:30.964Z,2.50
2019-01-10T03:21:01.133Z,2.50
2019-01-10T03:24:17.056Z,2.50
2019-01-10T03:26:47.198Z,2.60
2019-01-10T03:29:17.415Z,2.50
2019-01-10T03:32:17.821Z,2.50
2019-01-10T03:34:48.036Z,2.50
2019-01-10T03:37:18.239Z,2.50
2019-01-10T03:39:48.368Z,2.50
2019-01-10T03:42:18.632Z,2.60
2019-01-10T03:44:48.821Z,2.60
2019-01-10T03:47:18.954Z,2.60
2019-01-10T03:49:49.144Z,2.60
2019-01-10T03:53:13.071Z,2.60
2019-01-10T03:55:44.327Z,2.70
2019-01-10T03:58:14.588Z,2.60
2019-01-10T04:00:44.742Z,2.60
2019-01-10T04:03:14.931Z,2.60
2019-01-10T04:05:45.175Z,2.60
2019-01-10T04:08:15.378Z,2.60
2019-01-10T04:10:45.604Z,2.50
2019-01-10T04:13:15.808Z,2.50
2019-01-10T04:15:51.802Z,2.50
2019-01-10T04:18:30.844Z,2.50
2019-01-10T04:21:00.985Z,2.60
2019-01-10T04:23:31.171Z,2.50
2019-01-10T04:26:01.352Z,2.50
2019-01-10T04:28:31.503Z,2.50
2019-01-10T04:31:01.864Z,2.60
2019-01-10T04:33:45.090Z,2.60
2019-01-10T04:36:16.188Z,2.60
2019-01-10T04:38:46.437Z,2.50
2019-01-10T04:41:16.582Z,2.60
2019-01-10T04:43:48.134Z,2.70
2019-01-10T04:46:19.764Z,2.60
2019-01-10T04:48:49.990Z,2.60
2019-01-10T04:51:36.554Z,2.50
2019-01-10T04:54:06.967Z,2.50
2019-01-10T04:56:37.117Z,2.50
2019-01-10T04:59:07.288Z,2.60
2019-01-10T05:01:47.502Z,2.60
2019-01-10T05:04:17.652Z,2.50
2019-01-10T05:06:48.612Z,2.40
2019-01-10T05:09:18.840Z,2.30
2019-01-10T05:12:04.279Z,2.30
2019-01-10T05:14:34.537Z,2.30
2019-01-10T05:17:04.743Z,2.30
2019-01-10T05:19:34.883Z,2.20
2019-01-10T05:22:05.125Z,2.10
2019-01-10T05:24:35.358Z,2.00
2019-01-10T05:27:33.675Z,2.00
2019-01-10T05:30:09.326Z,1.90
2019-01-10T05:32:39.469Z,1.90
2019-01-10T05:35:09.796Z,1.80
2019-01-10T05:37:39.951Z,1.90
2019-01-10T05:40:12.955Z,1.90
2019-01-10T05:42:53.441Z,1.90
2019-01-10T05:45:23.752Z,1.90
2019-01-10T05:47:53.915Z,1.90
2019-01-10T05:50:24.090Z,1.80
2019-01-10T05:53:03.123Z,1.80
2019-01-10T05:55:33.407Z,1.90
2019-01-10T05:58:03.578Z,1.80
2019-01-10T06:00:33.836Z,1.80
2019-01-10T06:03:03.993Z,1.80
2019-01-10T06:05:34.152Z,1.80
2019-01-10T06:08:04.388Z,1.70
2019-01-10T06:10:34.600Z,1.60
2019-01-10T06:13:04.804Z,1.70
2019-01-10T06:15:36.586Z,1.70
2019-01-10T06:18:07.785Z,1.60
2019-01-10T06:20:38.097Z,1.50
2019-01-10T06:23:08.275Z,1.60
2019-01-10T06:25:39.526Z,1.60
2019-01-10T06:28:10.335Z,1.60
2019-01-10T06:30:42.043Z,1.50
2019-01-10T06:33:12.259Z,1.50
2019-01-10T06:35:42.494Z,1.60
2019-01-10T06:38:12.683Z,1.60
2019-01-10T06:40:45.437Z,1.70
2019-01-10T06:43:15.670Z,1.70
2019-01-10T06:45:45.896Z,1.70
2019-01-10T06:48:16.119Z,1.70
2019-01-10T06:50:47.173Z,1.70
2019-01-10T06:53:19.665Z,1.80
2019-01-10T06:55:49.882Z,1.90
2019-01-10T06:58:20.079Z,1.90
2019-01-10T07:00:53.180Z,2.00
2019-01-10T07:03:23.918Z,2.00
2019-01-10T07:05:54.162Z,2.00
2019-01-10T07:08:35.989Z,2.10
2019-01-10T07:11:06.180Z,2.10
2019-01-10T07:13:36.345Z,2.00
2019-01-10T07:16:06.498Z,2.00
2019-01-10T07:18:37.546Z,2.10
2019-01-10T07:21:07.700Z,2.10
2019-01-10T07:23:41.693Z,2.10
2019-01-10T07:26:11.996Z,2.10
2019-01-10T07:28:43.750Z,2.10
2019-01-10T07:31:28.968Z,2.00
2019-01-10T07:34:01.866Z,2.00
2019-01-10T07:36:33.274Z,2.00
2019-01-10T07:39:04.689Z,2.00
2019-01-10T07:41:36.430Z,2.10
2019-01-10T07:44:06.566Z,2.20
2019-01-10T07:46:36.704Z,2.20
2019-01-10T07:49:08.162Z,2.20
2019-01-10T07:51:39.929Z,2.20
2019-01-10T07:54:10.097Z,2.20
2019-01-10T07:56:40.234Z,2.10
2019-01-10T07:59:10.374Z,2.10
2019-01-10T08:01:40.517Z,2.10
2019-01-10T08:04:10.790Z,2.20
2019-01-10T08:06:40.932Z,2.20
2019-01-10T08:09:11.148Z,2.20
2019-01-10T08:11:41.298Z,2.20
2019-01-10T08:14:11.526Z,2.30
2019-01-10T08:16:41.679Z,2.30
2019-01-10T08:19:11.865Z,2.20
2019-01-10T08:21:42.002Z,2.30
2019-01-10T08:24:12.205Z,2.30
2019-01-10T08:26:42.350Z,2.30
2019-01-10T08:29:12.491Z,2.30
2019-01-10T08:31:42.691Z,2.30
2019-01-10T08:34:12.824Z,2.30
2019-01-10T08:36:42.959Z,2.30
2019-01-10T08:39:13.104Z,2.40
2019-01-10T08:41:43.290Z,2.40
2019-01-10T08:44:13.407Z,2.30
2019-01-10T08:46:43.558Z,2.40
2019-01-10T08:49:13.727Z,2.40
2019-01-10T08:51:55.915Z,2.40
2019-01-10T08:54:26.050Z,2.50
2019-01-10T08:56:56.217Z,2.50
2019-01-10T08:59:26.355Z,2.40
2019-01-10T09:01:58.463Z,2.50
2019-01-10T09:04:28.822Z,2.60
2019-01-10T09:06:58.963Z,2.60
2019-01-10T09:09:29.102Z,2.70
2019-01-10T09:11:59.841Z,2.70
2019-01-10T09:14:29.986Z,2.90
2019-01-10T09:17:00.134Z,2.90
2019-01-10T09:19:30.282Z,2.80
2019-01-10T09:22:00.450Z,2.90
2019-01-10T09:24:30.608Z,3.00
2019-01-10T09:27:00.750Z,3.20
2019-01-10T09:29:30.926Z,3.20
2019-01-10T09:32:01.081Z,3.20
2019-01-10T09:34:31.243Z,3.20
2019-01-10T09:37:01.425Z,3.20
2019-01-10T09:39:31.549Z,3.30
2019-01-10T09:42:01.715Z,3.30
2019-01-10T09:44:31.869Z,3.40
2019-01-10T09:47:02.153Z,3.30
2019-01-10T09:49:32.270Z,3.50
2019-01-10T09:52:02.437Z,3.60
2019-01-10T09:54:32.595Z,3.60
2019-01-10T09:57:02.743Z,3.60
2019-01-10T09:59:32.887Z,3.60
2019-01-10T10:02:03.054Z,3.60
2019-01-10T10:04:33.168Z,3.60
2019-01-10T10:07:09.132Z,3.60
2019-01-10T10:09:39.310Z,3.70
2019-01-10T10:12:09.462Z,3.60
2019-01-10T10:14:39.639Z,3.60
2019-01-10T10:17:12.927Z,3.70
2019-01-10T10:19:43.071Z,3.90
2019-01-10T10:22:13.222Z,3.90
2019-01-10T10:24:43.339Z,4.00
2019-01-10T10:27:13.514Z,3.90
2019-01-10T10:29:43.655Z,3.70
2019-01-10T10:32:13.858Z,3.80
2019-01-10T10:34:46.930Z,3.80
2019-01-10T10:37:17.087Z,3.80
2019-01-10T10:39:47.265Z,3.60
2019-01-10T10:42:20.894Z,3.60
2019-01-10T10:44:51.094Z,3.50
2019-01-10T10:47:21.244Z,3.50
2019-01-10T10:49:51.478Z,3.40
2019-01-10T10:52:21.645Z,3.40
2019-01-10T10:54:51.776Z,3.40
2019-01-10T10:57:21.989Z,3.40
2019-01-10T10:59:52.106Z,3.30
2019-01-10T11:02:22.261Z,3.20
2019-01-10T11:04:52.445Z,3.10
2019-01-10T11:07:22.662Z,3.00
2019-01-10T11:09:53.370Z,3.00
2019-01-10T11:12:23.491Z,3.00
2019-01-10T11:14:53.665Z,3.00
2019-01-10T11:17:23.794Z,3.00
2019-01-10T11:19:53.971Z,3.10
2019-01-10T11:22:25.531Z,3.10
2019-01-10T11:24:55.924Z,3.10
2019-01-10T11:27:26.125Z,3.00
2019-01-10T11:29:56.298Z,2.90
2019-01-10T11:32:26.446Z,3.00
2019-01-10T11:34:56.607Z,3.00
2019-01-10T11:37:26.827Z,3.00
2019-01-10T11:39:56.928Z,3.00
2019-01-10T11:42:27.184Z,3.00
2019-01-10T11:44:57.968Z,3.10
2019-01-10T11:47:32.908Z,3.00
2019-01-10T11:50:07.514Z,3.00
2019-01-10T11:52:37.715Z,3.10
2019-01-10T11:55:09.536Z,3.00
2019-01-10T11:57:41.715Z,3.00
2019-01-10T12:00:19.359Z,3.00
2019-01-10T12:02:49.497Z,2.90
2019-01-10T12:05:20.148Z,2.90
2019-01-10T12:07:50.349Z,2.90
2019-01-10T12:10:20.507Z,2.90
2019-01-10T12:12:50.651Z,3.00
2019-01-10T12:15:20.809Z,3.00
2019-01-10T12:17:50.981Z,3.00
2019-01-10T12:20:21.213Z,2.90
2019-01-10T12:22:51.471Z,3.00
2019-01-10T12:25:21.625Z,3.10
2019-01-10T12:27:51.767Z,3.00
2019-01-10T12:30:26.756Z,2.90
2019-01-10T12:32:59.916Z,2.80
2019-01-10T12:35:30.088Z,3.00
2019-01-10T12:38:00.267Z,3.10
2019-01-10T12:40:30.424Z,3.10
2019-01-10T12:43:05.758Z,3.10
2019-01-10T12:45:35.895Z,3.10
2019-01-10T12:48:06.126Z,3.10
2019-01-10T12:50:36.443Z,3.00
2019-01-10T12:53:06.594Z,3.10
2019-01-10T12:55:37.320Z,3.00
2019-01-10T12:58:07.618Z,3.00
2019-01-10T13:00:37.919Z,3.00
2019-01-10T13:03:08.040Z,3.10
2019-01-10T13:05:47.188Z,2.90
2019-01-10T13:08:17.321Z,2.90
2019-01-10T13:10:49.048Z,3.00
2019-01-10T13:13:20.258Z,3.00
2019-01-10T13:15:50.468Z,3.00
2019-01-10T13:18:20.661Z,3.00
2019-01-10T13:20:50.870Z,3.00
2019-01-10T13:23:21.059Z,3.00
2019-01-10T13:25:59.450Z,2.90
2019-01-10T13:28:25.654Z,2.90
2019-01-10T13:30:55.882Z,2.90
2019-01-10T13:33:29.636Z,2.90
2019-01-10T13:35:59.792Z,2.90
2019-01-10T13:38:29.993Z,2.90
2019-01-10T13:41:00.147Z,2.80
2019-01-10T13:43:30.282Z,2.80
2019-01-10T13:46:00.429Z,2.70
2019-01-10T13:48:37.606Z,2.70
2019-01-10T13:51:07.882Z,2.70
2019-01-10T13:53:38.075Z,2.70
2019-01-10T13:56:08.346Z,2.80
2019-01-10T13:58:38.450Z,2.70
2019-01-10T14:03:38.826Z,2.60
2019-01-10T14:06:10.258Z,2.60
2019-01-10T14:08:42.008Z,2.50
2019-01-10T14:11:12.266Z,2.60
2019-01-10T14:13:42.433Z,2.70
2019-01-10T14:16:13.350Z,2.60
2019-01-10T14:18:43.522Z,2.60
2019-01-10T14:21:13.653Z,2.50
2019-01-10T14:23:43.813Z,2.60
2019-01-10T14:26:14.038Z,2.60
2019-01-10T14:28:44.218Z,2.70
2019-01-10T14:31:14.388Z,2.70
2019-01-10T14:33:44.667Z,2.60
2019-01-10T14:36:14.848Z,2.60
2019-01-10T14:38:45.042Z,2.60
2019-01-10T14:41:15.191Z,2.50
2019-01-10T14:43:45.341Z,2.50
2019-01-10T14:46:15.495Z,2.50
2019-01-10T14:48:45.675Z,2.60
2019-01-10T14:51:15.818Z,2.60
2019-01-10T14:53:46.589Z,2.50
2019-01-10T14:56:16.723Z,2.50
2019-01-10T14:58:47.978Z,2.40
2019-01-10T15:01:18.211Z,2.40
2019-01-10T15:03:49.031Z,2.30
2019-01-10T15:06:19.183Z,2.40
2019-01-10T15:08:52.437Z,2.40
2019-01-10T15:11:22.589Z,2.40
2019-01-10T15:13:52.757Z,2.30
2019-01-10T15:16:22.877Z,2.30
2019-01-10T15:18:58.921Z,2.20
2019-01-10T15:21:29.122Z,2.20
2019-01-10T15:23:59.257Z,2.20
2019-01-10T15:26:29.416Z,2.30
2019-01-10T15:28:59.577Z,2.20
2019-01-10T15:31:29.709Z,2.10
2019-01-10T15:33:59.863Z,2.10
2019-01-10T15:36:30.085Z,2.10
2019-01-10T15:39:08.208Z,2.10
2019-01-10T15:41:38.366Z,2.20
2019-01-10T15:44:08.544Z,2.20
2019-01-10T15:46:38.672Z,2.10
2019-01-10T15:49:08.845Z,2.10
2019-01-10T15:51:38.997Z,2.00
2019-01-10T15:54:10.806Z,2.00
2019-01-10T15:56:40.967Z,2.00
2019-01-10T15:59:11.119Z,1.90
2019-01-10T16:01:41.747Z,1.90
2019-01-10T16:04:11.899Z,1.90
2019-01-10T16:06:42.078Z,1.90
2019-01-10T16:09:13.760Z,2.00
2019-01-10T16:11:43.928Z,1.90
2019-01-10T16:14:14.102Z,1.90
2019-01-10T16:16:46.179Z,1.90
2019-01-10T16:19:16.311Z,1.90
2019-01-10T16:21:46.489Z,1.90
2019-01-10T16:24:16.645Z,1.80
2019-01-10T16:26:46.788Z,1.80
2019-01-10T16:29:16.996Z,1.80
2019-01-10T16:31:47.112Z,1.80
2019-01-10T16:34:17.240Z,1.80
2019-01-10T16:36:47.420Z,1.70
2019-01-10T16:39:17.565Z,1.70
2019-01-10T16:41:47.734Z,1.70
2019-01-10T16:44:17.879Z,1.70
2019-01-10T16:46:48.044Z,1.60
2019-01-10T16:49:18.171Z,1.70
2019-01-10T16:51:48.324Z,1.70
2019-01-10T16:54:18.556Z,1.70
2019-01-10T16:56:48.728Z,1.70
2019-01-10T16:59:18.872Z,1.60
2019-01-10T17:01:49.072Z,1.50
2019-01-10T17:04:19.214Z,1.50
2019-01-10T17:06:49.396Z,1.50
2019-01-10T17:09:19.533Z,1.40
2019-01-10T17:11:49.702Z,1.30
2019-01-10T17:14:25.818Z,1.10
2019-01-10T17:16:55.936Z,1.10
2019-01-10T17:19:26.076Z,1.00
2019-01-10T17:21:56.242Z,1.00
2019-01-10T17:24:26.406Z,0.90
2019-01-10T17:26:56.613Z,0.80
2019-01-10T17:29:26.780Z,0.80
2019-01-10T17:31:58.850Z,0.80
2019-01-10T17:34:28.975Z,0.70
2019-01-10T17:36:59.127Z,0.70
2019-01-10T17:39:29.266Z,0.70
2019-01-10T17:41:59.416Z,0.70
2019-01-10T17:44:29.579Z,0.60
2019-01-10T17:46:59.738Z,0.60
2019-01-10T17:49:29.911Z,0.60
2019-01-10T17:52:00.110Z,0.60
2019-01-10T17:54:30.257Z,0.60
2019-01-10T17:57:00.383Z,0.50
2019-01-10T17:59:30.533Z,0.60
2019-01-10T18:02:01.003Z,0.50
2019-01-10T18:04:31.165Z,0.60
2019-01-10T18:07:01.291Z,0.60
2019-01-10T18:09:31.446Z,0.50
2019-01-10T18:12:01.679Z,0.50
2019-01-10T18:14:31.847Z,0.50
2019-01-10T18:17:01.991Z,0.60
2019-01-10T18:19:32.149Z,0.50
2019-01-10T18:22:02.307Z,0.50
2019-01-10T18:24:32.459Z,0.40
2019-01-10T18:27:02.621Z,0.40
2019-01-10T18:29:34.334Z,0.30
2019-01-10T18:32:04.547Z,0.20
2019-01-10T18:34:34.765Z,0.30
2019-01-10T18:37:04.911Z,0.30
2019-01-10T18:39:35.089Z,0.30
2019-01-10T18:42:05.265Z,0.20
2019-01-10T18:44:35.409Z,0.10
2019-01-10T18:47:05.557Z,0.10
2019-01-10T18:49:35.729Z,0.10
2019-01-10T18:52:16.111Z,0.10
2019-01-10T18:54:46.293Z,0.00
2019-01-10T18:57:16.426Z,0.00
2019-01-10T18:59:46.584Z,0.00
2019-01-10T19:02:16.763Z,0.00
2019-01-10T19:04:46.927Z,0.00
2019-01-10T19:07:17.111Z,0.10
2019-01-10T19:09:47.516Z,0.10
2019-01-10T19:12:19.396Z,0.10
2019-01-10T19:14:53.039Z,0.10
2019-01-10T19:17:33.306Z,0.00
2019-01-10T19:20:07.109Z,0.00
2019-01-10T19:22:39.790Z,0.10
2019-01-10T19:25:10.787Z,0.00
2019-01-10T19:27:42.724Z,0.00
2019-01-10T19:30:23.166Z,0.00
2019-01-10T19:32:55.114Z,0.00
2019-01-10T19:35:26.906Z,0.00
2019-01-10T19:38:00.050Z,0.00
2019-01-10T19:40:31.325Z,0.00
2019-01-10T19:43:02.190Z,0.00
2019-01-10T19:45:32.344Z,0.00
2019-01-10T19:48:02.588Z,0.00
2019-01-10T19:50:32.747Z,0.00
2019-01-10T19:53:02.907Z,0.00
2019-01-10T19:55:33.051Z,0.10
2019-01-10T19:58:03.277Z,0.00
2019-01-10T20:00:38.617Z,0.10
2019-01-10T20:03:08.788Z,0.00
2019-01-10T20:05:49.207Z,0.10
2019-01-10T20:08:19.379Z,0.10
2019-01-10T20:10:50.592Z,0.00
2019-01-10T20:13:20.731Z,0.10
2019-01-10T20:15:50.917Z,0.00
2019-01-10T20:18:21.530Z,0.00
2019-01-10T20:21:00.544Z,0.00
2019-01-10T20:23:30.963Z,0.00
2019-01-10T20:26:01.171Z,0.00
2019-01-10T20:28:32.334Z,0.00
2019-01-10T20:31:05.333Z,0.00
2019-01-10T20:33:35.620Z,0.00
2019-01-10T20:36:07.554Z,0.00
2019-01-10T20:38:37.729Z,0.00
2019-01-10T20:41:14.633Z,0.00
2019-01-10T20:43:46.889Z,0.00
2019-01-10T20:46:23.072Z,0.00
2019-01-10T20:48:54.177Z,0.00
2019-01-10T20:51:24.323Z,0.00
2019-01-10T20:53:54.520Z,-0.10
2019-01-10T20:56:24.761Z,-0.10
2019-01-10T20:58:57.824Z,-0.10
2019-01-10T21:01:39.912Z,-0.10
2019-01-10T21:04:10.049Z,-0.10
2019-01-10T21:06:45.944Z,-0.10
2019-01-10T21:09:16.146Z,0.00
2019-01-10T21:11:46.296Z,0.00
2019-01-10T21:14:17.539Z,0.00
2019-01-10T21:16:47.730Z,0.00
2019-01-10T21:19:18.366Z,0.00
2019-01-10T21:21:48.622Z,0.00
2019-01-10T21:24:18.862Z,0.00
2019-01-10T21:26:50.043Z,0.00
2019-01-10T21:29:21.514Z,0.10
2019-01-10T21:31:51.631Z,0.10
2019-01-10T21:34:21.784Z,0.10
2019-01-10T21:36:51.947Z,0.10
2019-01-10T21:39:22.114Z,0.10
2019-01-10T21:41:52.248Z,0.10
2019-01-10T21:44:22.409Z,0.10
2019-01-10T21:46:52.554Z,0.00
2019-01-10T21:49:22.690Z,0.00
2019-01-10T21:51:52.860Z,0.10
2019-01-10T21:54:23.607Z,0.10
2019-01-10T21:56:53.730Z,0.10
2019-01-10T21:59:24.375Z,0.10
2019-01-10T22:01:54.500Z,0.10
2019-01-10T22:04:24.646Z,0.10
2019-01-10T22:06:54.807Z,0.10
2019-01-10T22:09:25.165Z,0.10
2019-01-10T22:11:55.299Z,0.10
2019-01-10T22:14:25.487Z,0.10
2019-01-10T22:16:59.777Z,0.10
2019-01-10T22:19:29.939Z,0.10
2019-01-10T22:22:00.066Z,0.10
2019-01-10T22:24:30.234Z,0.10
2019-01-10T22:27:00.378Z,0.10
2019-01-10T22:29:32.087Z,0.10
2019-01-10T22:32:02.230Z,0.10
2019-01-10T22:34:32.401Z,0.10
2019-01-10T22:37:02.530Z,0.10
2019-01-10T22:39:35.801Z,0.10
2019-01-10T22:42:05.955Z,0.10
2019-01-10T22:44:36.122Z,0.10
2019-01-10T22:47:06.272Z,0.10
2019-01-10T22:49:36.432Z,0.10
2019-01-10T22:52:06.650Z,0.30
2019-01-10T22:54:36.800Z,0.30
2019-01-10T22:57:06.970Z,0.30
2019-01-10T22:59:37.126Z,0.20
2019-01-10T23:02:08.564Z,0.20
2019-01-10T23:04:39.075Z,0.20
2019-01-10T23:07:15.443Z,0.20
2019-01-10T23:09:45.590Z,0.20
2019-01-10T23:12:15.750Z,0.40
2019-01-10T23:14:45.910Z,0.30
2019-01-10T23:17:16.167Z,0.30
2019-01-10T23:19:47.533Z,0.30
2019-01-10T23:22:17.795Z,0.30
2019-01-10T23:24:54.035Z,0.30
2019-01-10T23:27:24.246Z,0.20
2019-01-10T23:29:54.455Z,0.30
2019-01-10T23:32:24.596Z,0.40
2019-01-10T23:34:56.514Z,0.40
2019-01-10T23:37:26.676Z,0.40
2019-01-10T23:39:56.805Z,0.30
2019-01-10T23:42:26.949Z,0.30
2019-01-10T23:44:57.244Z,0.30
2019-01-10T23:47:27.469Z,0.30
2019-01-10T23:49:57.662Z,0.30
2019-01-10T23:52:28.095Z,0.30
2019-01-10T23:54:58.222Z,0.30
2019-01-10T23:57:28.382Z,0.30
2019-01-10T23:59:58.526Z,0.40
